sensor_id;sensor_type;location;lat;lon;timestamp;P1;durP1;ratioP1;P2;durP2;ratioP2
1775;SDS011;885;42.626;23.200;2022-09-12T00:01:02;5.30;;;4.90;;
1775;SDS011;885;42.626;23.200;2022-09-12T00:03:32;5.90;;;4.60;;
1775;SDS011;885;42.626;23.200;2022-09-12T00:05:59;7.10;;;5.20;;
1775;SDS011;885;42.626;23.200;2022-09-12T00:08:25;4.90;;;4.40;;
1775;SDS011;885;42.626;23.200;2022-09-12T00:10:52;9.80;;;5.17;;
1775;SDS011;885;42.626;23.200;2022-09-12T00:13:20;5.30;;;4.77;;
1775;SDS011;885;42.626;23.200;2022-09-12T00:15:47;4.40;;;4.00;;
1775;SDS011;885;42.626;23.200;2022-09-12T00:18:14;7.30;;;5.43;;
1775;SDS011;885;42.626;23.200;2022-09-12T00:20:42;7.37;;;4.90;;
1775;SDS011;885;42.626;23.200;2022-09-12T00:23:10;5.33;;;4.73;;
1775;SDS011;885;42.626;23.200;2022-09-12T00:25:41;4.30;;;3.90;;
1775;SDS011;885;42.626;23.200;2022-09-12T00:28:08;5.30;;;4.20;;
1775;SDS011;885;42.626;23.200;2022-09-12T00:30:40;5.53;;;4.13;;
1775;SDS011;885;42.626;23.200;2022-09-12T00:33:07;4.57;;;4.17;;
1775;SDS011;885;42.626;23.200;2022-09-12T00:35:39;6.20;;;4.13;;
1775;SDS011;885;42.626;23.200;2022-09-12T00:38:07;4.70;;;4.23;;
1775;SDS011;885;42.626;23.200;2022-09-12T00:40:33;4.40;;;3.93;;
1775;SDS011;885;42.626;23.200;2022-09-12T00:43:00;4.77;;;3.50;;
1775;SDS011;885;42.626;23.200;2022-09-12T00:45:30;4.73;;;3.57;;
1775;SDS011;885;42.626;23.200;2022-09-12T00:47:59;4.93;;;3.80;;
1775;SDS011;885;42.626;23.200;2022-09-12T00:50:28;6.00;;;4.17;;
1775;SDS011;885;42.626;23.200;2022-09-12T00:52:58;8.33;;;4.10;;
1775;SDS011;885;42.626;23.200;2022-09-12T00:55:29;3.83;;;3.53;;
1775;SDS011;885;42.626;23.200;2022-09-12T00:58:01;4.30;;;3.90;;
1775;SDS011;885;42.626;23.200;2022-09-12T01:00:30;3.47;;;3.17;;
1775;SDS011;885;42.626;23.200;2022-09-12T01:03:00;4.20;;;3.80;;
1775;SDS011;885;42.626;23.200;2022-09-12T01:05:30;4.23;;;3.50;;
1775;SDS011;885;42.626;23.200;2022-09-12T01:08:00;3.30;;;3.00;;
1775;SDS011;885;42.626;23.200;2022-09-12T01:10:29;3.67;;;3.37;;
1775;SDS011;885;42.626;23.200;2022-09-12T01:12:57;5.60;;;3.87;;
1775;SDS011;885;42.626;23.200;2022-09-12T01:15:24;3.27;;;2.97;;
1775;SDS011;885;42.626;23.200;2022-09-12T01:17:55;4.43;;;4.03;;
1775;SDS011;885;42.626;23.200;2022-09-12T01:20:39;5.53;;;3.97;;
1775;SDS011;885;42.626;23.200;2022-09-12T01:23:22;3.93;;;3.60;;
1775;SDS011;885;42.626;23.200;2022-09-12T01:26:08;3.80;;;3.00;;
1775;SDS011;885;42.626;23.200;2022-09-12T01:28:58;3.13;;;2.93;;
1775;SDS011;885;42.626;23.200;2022-09-12T01:31:41;3.60;;;3.30;;
1775;SDS011;885;42.626;23.200;2022-09-12T01:34:19;5.23;;;3.43;;
1775;SDS011;885;42.626;23.200;2022-09-12T01:36:54;8.67;;;3.80;;
1775;SDS011;885;42.626;23.200;2022-09-12T01:39:32;6.10;;;4.20;;
1775;SDS011;885;42.626;23.200;2022-09-12T01:42:08;3.60;;;3.30;;
1775;SDS011;885;42.626;23.200;2022-09-12T01:44:45;3.70;;;3.40;;
1775;SDS011;885;42.626;23.200;2022-09-12T01:47:20;4.70;;;3.57;;
1775;SDS011;885;42.626;23.200;2022-09-12T01:49:55;6.00;;;3.40;;
1775;SDS011;885;42.626;23.200;2022-09-12T01:52:26;4.97;;;3.27;;
1775;SDS011;885;42.626;23.200;2022-09-12T01:54:58;3.40;;;3.10;;
1775;SDS011;885;42.626;23.200;2022-09-12T01:57:32;4.20;;;3.80;;
1775;SDS011;885;42.626;23.200;2022-09-12T02:00:04;4.30;;;3.53;;
1775;SDS011;885;42.626;23.200;2022-09-12T02:02:37;3.23;;;2.93;;
1775;SDS011;885;42.626;23.200;2022-09-12T02:05:12;5.20;;;3.10;;
1775;SDS011;885;42.626;23.200;2022-09-12T02:07:46;3.33;;;3.03;;
1775;SDS011;885;42.626;23.200;2022-09-12T02:10:18;3.50;;;2.67;;
1775;SDS011;885;42.626;23.200;2022-09-12T02:12:49;3.10;;;2.80;;
1775;SDS011;885;42.626;23.200;2022-09-12T02:15:21;3.10;;;2.30;;
1775;SDS011;885;42.626;23.200;2022-09-12T02:17:52;3.60;;;2.90;;
1775;SDS011;885;42.626;23.200;2022-09-12T02:20:25;3.90;;;2.63;;
1775;SDS011;885;42.626;23.200;2022-09-12T02:22:54;2.77;;;2.57;;
1775;SDS011;885;42.626;23.200;2022-09-12T02:25:23;4.07;;;2.50;;
1775;SDS011;885;42.626;23.200;2022-09-12T02:27:53;2.97;;;2.73;;
1775;SDS011;885;42.626;23.200;2022-09-12T02:30:24;2.97;;;2.37;;
1775;SDS011;885;42.626;23.200;2022-09-12T02:32:57;2.90;;;2.70;;
1775;SDS011;885;42.626;23.200;2022-09-12T02:35:30;3.20;;;2.90;;
1775;SDS011;885;42.626;23.200;2022-09-12T02:38:04;3.20;;;2.40;;
1775;SDS011;885;42.626;23.200;2022-09-12T02:40:35;6.53;;;2.87;;
1775;SDS011;885;42.626;23.200;2022-09-12T02:43:04;2.87;;;2.67;;
1775;SDS011;885;42.626;23.200;2022-09-12T02:45:31;3.37;;;2.67;;
1775;SDS011;885;42.626;23.200;2022-09-12T02:48:01;3.60;;;2.80;;
1775;SDS011;885;42.626;23.200;2022-09-12T02:50:34;3.17;;;2.87;;
1775;SDS011;885;42.626;23.200;2022-09-12T02:53:02;2.80;;;2.50;;
1775;SDS011;885;42.626;23.200;2022-09-12T02:55:29;2.90;;;2.70;;
1775;SDS011;885;42.626;23.200;2022-09-12T02:57:57;2.80;;;2.60;;
1775;SDS011;885;42.626;23.200;2022-09-12T03:00:26;3.10;;;2.40;;
1775;SDS011;885;42.626;23.200;2022-09-12T03:03:08;3.00;;;2.63;;
1775;SDS011;885;42.626;23.200;2022-09-12T03:05:50;3.73;;;2.90;;
1775;SDS011;885;42.626;23.200;2022-09-12T03:11:24;4.70;;;2.63;;
1775;SDS011;885;42.626;23.200;2022-09-12T03:14:11;4.83;;;2.93;;
1775;SDS011;885;42.626;23.200;2022-09-12T03:17:02;3.33;;;2.83;;
1775;SDS011;885;42.626;23.200;2022-09-12T03:19:39;2.50;;;2.30;;
1775;SDS011;885;42.626;23.200;2022-09-12T03:22:19;5.40;;;2.67;;
1775;SDS011;885;42.626;23.200;2022-09-12T03:24:50;3.27;;;2.77;;
1775;SDS011;885;42.626;23.200;2022-09-12T03:27:24;2.40;;;2.20;;
1775;SDS011;885;42.626;23.200;2022-09-12T03:29:55;2.83;;;2.63;;
1775;SDS011;885;42.626;23.200;2022-09-12T03:35:12;3.70;;;2.70;;
1775;SDS011;885;42.626;23.200;2022-09-12T03:37:42;3.00;;;2.80;;
1775;SDS011;885;42.626;23.200;2022-09-12T03:40:09;7.10;;;3.83;;
1775;SDS011;885;42.626;23.200;2022-09-12T03:42:37;2.83;;;2.50;;
1775;SDS011;885;42.626;23.200;2022-09-12T03:45:04;4.47;;;3.30;;
1775;SDS011;885;42.626;23.200;2022-09-12T03:47:32;3.33;;;2.67;;
1775;SDS011;885;42.626;23.200;2022-09-12T03:49:59;5.63;;;4.07;;
1775;SDS011;885;42.626;23.200;2022-09-12T03:52:27;4.90;;;4.07;;
1775;SDS011;885;42.626;23.200;2022-09-12T03:54:54;3.57;;;3.27;;
1775;SDS011;885;42.626;23.200;2022-09-12T03:57:21;5.00;;;4.13;;
1775;SDS011;885;42.626;23.200;2022-09-12T03:59:47;6.50;;;5.90;;
1775;SDS011;885;42.626;23.200;2022-09-12T04:02:14;6.30;;;5.07;;
1775;SDS011;885;42.626;23.200;2022-09-12T04:04:41;5.83;;;5.17;;
1775;SDS011;885;42.626;23.200;2022-09-12T04:07:10;5.00;;;4.60;;
1775;SDS011;885;42.626;23.200;2022-09-12T04:09:38;8.17;;;7.33;;
1775;SDS011;885;42.626;23.200;2022-09-12T04:12:05;6.07;;;5.40;;
1775;SDS011;885;42.626;23.200;2022-09-12T04:14:32;8.83;;;7.97;;
1775;SDS011;885;42.626;23.200;2022-09-12T04:16:59;6.37;;;4.80;;
1775;SDS011;885;42.626;23.200;2022-09-12T04:19:26;7.43;;;5.80;;
1775;SDS011;885;42.626;23.200;2022-09-12T04:21:53;6.40;;;5.70;;
1775;SDS011;885;42.626;23.200;2022-09-12T04:24:20;7.87;;;7.07;;
1775;SDS011;885;42.626;23.200;2022-09-12T04:26:48;9.20;;;8.30;;
1775;SDS011;885;42.626;23.200;2022-09-12T04:29:15;14.10;;;8.43;;
1775;SDS011;885;42.626;23.200;2022-09-12T04:31:42;8.33;;;7.60;;
1775;SDS011;885;42.626;23.200;2022-09-12T04:34:09;10.87;;;9.77;;
1775;SDS011;885;42.626;23.200;2022-09-12T04:36:36;11.17;;;9.17;;
1775;SDS011;885;42.626;23.200;2022-09-12T04:39:03;10.40;;;9.30;;
1775;SDS011;885;42.626;23.200;2022-09-12T04:41:32;8.30;;;7.50;;
1775;SDS011;885;42.626;23.200;2022-09-12T04:44:03;8.87;;;8.07;;
1775;SDS011;885;42.626;23.200;2022-09-12T04:46:32;11.50;;;10.30;;
1775;SDS011;885;42.626;23.200;2022-09-12T04:49:00;12.20;;;9.97;;
1775;SDS011;885;42.626;23.200;2022-09-12T04:51:27;10.50;;;9.20;;
1775;SDS011;885;42.626;23.200;2022-09-12T04:53:56;9.27;;;8.20;;
1775;SDS011;885;42.626;23.200;2022-09-12T04:56:24;13.07;;;10.43;;
1775;SDS011;885;42.626;23.200;2022-09-12T04:58:52;11.77;;;10.67;;
1775;SDS011;885;42.626;23.200;2022-09-12T05:01:21;10.33;;;9.23;;
1775;SDS011;885;42.626;23.200;2022-09-12T05:03:48;10.43;;;9.43;;
1775;SDS011;885;42.626;23.200;2022-09-12T05:06:16;11.50;;;10.30;;
1775;SDS011;885;42.626;23.200;2022-09-12T05:08:45;10.10;;;9.10;;
1775;SDS011;885;42.626;23.200;2022-09-12T05:11:13;11.17;;;10.07;;
1775;SDS011;885;42.626;23.200;2022-09-12T05:13:41;10.73;;;9.83;;
1775;SDS011;885;42.626;23.200;2022-09-12T05:16:09;12.33;;;9.50;;
1775;SDS011;885;42.626;23.200;2022-09-12T05:18:38;10.47;;;9.47;;
1775;SDS011;885;42.626;23.200;2022-09-12T05:21:05;10.20;;;9.20;;
1775;SDS011;885;42.626;23.200;2022-09-12T05:23:33;11.40;;;9.97;;
1775;SDS011;885;42.626;23.200;2022-09-12T05:26:01;9.37;;;8.53;;
1775;SDS011;885;42.626;23.200;2022-09-12T05:28:30;10.40;;;9.50;;
1775;SDS011;885;42.626;23.200;2022-09-12T05:30:59;10.10;;;9.07;;
1775;SDS011;885;42.626;23.200;2022-09-12T05:33:27;9.53;;;8.70;;
1775;SDS011;885;42.626;23.200;2022-09-12T05:35:56;9.83;;;8.87;;
1775;SDS011;885;42.626;23.200;2022-09-12T05:38:23;9.60;;;8.80;;
1775;SDS011;885;42.626;23.200;2022-09-12T05:40:50;13.90;;;11.23;;
1775;SDS011;885;42.626;23.200;2022-09-12T05:43:17;10.13;;;8.60;;
1775;SDS011;885;42.626;23.200;2022-09-12T05:45:44;8.27;;;7.57;;
1775;SDS011;885;42.626;23.200;2022-09-12T05:48:11;8.43;;;7.67;;
1775;SDS011;885;42.626;23.200;2022-09-12T05:50:37;8.90;;;8.10;;
1775;SDS011;885;42.626;23.200;2022-09-12T05:53:07;9.73;;;8.93;;
1775;SDS011;885;42.626;23.200;2022-09-12T05:55:34;9.27;;;8.37;;
1775;SDS011;885;42.626;23.200;2022-09-12T05:58:01;9.20;;;8.40;;
1775;SDS011;885;42.626;23.200;2022-09-12T06:00:28;9.87;;;8.07;;
1775;SDS011;885;42.626;23.200;2022-09-12T06:02:55;8.17;;;7.47;;
1775;SDS011;885;42.626;23.200;2022-09-12T06:05:21;8.73;;;7.83;;
1775;SDS011;885;42.626;23.200;2022-09-12T06:07:48;8.57;;;7.87;;
1775;SDS011;885;42.626;23.200;2022-09-12T06:10:17;7.93;;;7.33;;
1775;SDS011;885;42.626;23.200;2022-09-12T06:12:46;7.97;;;7.27;;
1775;SDS011;885;42.626;23.200;2022-09-12T06:15:13;8.93;;;8.13;;
1775;SDS011;885;42.626;23.200;2022-09-12T06:17:40;8.23;;;7.53;;
1775;SDS011;885;42.626;23.200;2022-09-12T06:20:07;7.33;;;6.73;;
1775;SDS011;885;42.626;23.200;2022-09-12T06:22:34;7.73;;;7.07;;
1775;SDS011;885;42.626;23.200;2022-09-12T06:25:01;8.70;;;7.90;;
1775;SDS011;885;42.626;23.200;2022-09-12T06:27:34;7.87;;;7.17;;
1775;SDS011;885;42.626;23.200;2022-09-12T06:30:00;8.57;;;7.87;;
1775;SDS011;885;42.626;23.200;2022-09-12T06:32:30;7.30;;;6.70;;
1775;SDS011;885;42.626;23.200;2022-09-12T06:34:56;7.87;;;7.27;;
1775;SDS011;885;42.626;23.200;2022-09-12T06:37:23;8.67;;;7.97;;
1775;SDS011;885;42.626;23.200;2022-09-12T06:39:50;7.57;;;6.83;;
1775;SDS011;885;42.626;23.200;2022-09-12T06:42:17;8.50;;;7.80;;
1775;SDS011;885;42.626;23.200;2022-09-12T06:44:46;8.57;;;7.67;;
1775;SDS011;885;42.626;23.200;2022-09-12T06:47:12;8.50;;;7.80;;
1775;SDS011;885;42.626;23.200;2022-09-12T06:49:39;8.57;;;7.77;;
1775;SDS011;885;42.626;23.200;2022-09-12T06:52:06;8.20;;;7.60;;
1775;SDS011;885;42.626;23.200;2022-09-12T06:54:33;9.10;;;8.20;;
1775;SDS011;885;42.626;23.200;2022-09-12T06:57:00;9.63;;;8.73;;
1775;SDS011;885;42.626;23.200;2022-09-12T06:59:26;9.53;;;8.73;;
1775;SDS011;885;42.626;23.200;2022-09-12T07:01:54;9.70;;;8.80;;
1775;SDS011;885;42.626;23.200;2022-09-12T07:04:21;8.73;;;8.03;;
1775;SDS011;885;42.626;23.200;2022-09-12T07:06:48;7.30;;;6.60;;
1775;SDS011;885;42.626;23.200;2022-09-12T07:09:15;8.80;;;8.00;;
1775;SDS011;885;42.626;23.200;2022-09-12T07:11:42;8.20;;;7.50;;
1775;SDS011;885;42.626;23.200;2022-09-12T07:14:10;7.07;;;6.47;;
1775;SDS011;885;42.626;23.200;2022-09-12T07:16:38;7.63;;;6.93;;
1775;SDS011;885;42.626;23.200;2022-09-12T07:19:06;8.37;;;7.53;;
1775;SDS011;885;42.626;23.200;2022-09-12T07:21:33;8.00;;;7.30;;
1775;SDS011;885;42.626;23.200;2022-09-12T07:24:03;8.37;;;7.57;;
1775;SDS011;885;42.626;23.200;2022-09-12T07:26:32;8.50;;;7.80;;
1775;SDS011;885;42.626;23.200;2022-09-12T07:28:59;8.60;;;7.93;;
1775;SDS011;885;42.626;23.200;2022-09-12T07:31:26;7.90;;;7.30;;
1775;SDS011;885;42.626;23.200;2022-09-12T07:33:54;8.80;;;8.00;;
1775;SDS011;885;42.626;23.200;2022-09-12T07:36:23;8.80;;;8.10;;
1775;SDS011;885;42.626;23.200;2022-09-12T07:38:53;8.10;;;7.47;;
1775;SDS011;885;42.626;23.200;2022-09-12T07:41:21;9.13;;;8.27;;
1775;SDS011;885;42.626;23.200;2022-09-12T07:43:50;9.53;;;8.73;;
1775;SDS011;885;42.626;23.200;2022-09-12T07:46:17;8.27;;;7.57;;
1775;SDS011;885;42.626;23.200;2022-09-12T07:48:47;9.87;;;8.97;;
1775;SDS011;885;42.626;23.200;2022-09-12T07:51:16;8.60;;;7.90;;
1775;SDS011;885;42.626;23.200;2022-09-12T07:53:44;8.53;;;7.83;;
1775;SDS011;885;42.626;23.200;2022-09-12T07:56:12;7.90;;;7.23;;
1775;SDS011;885;42.626;23.200;2022-09-12T07:58:39;6.17;;;5.63;;
1775;SDS011;885;42.626;23.200;2022-09-12T08:01:07;6.77;;;6.17;;
1775;SDS011;885;42.626;23.200;2022-09-12T08:03:36;6.37;;;5.87;;
1775;SDS011;885;42.626;23.200;2022-09-12T08:06:04;6.70;;;6.10;;
1775;SDS011;885;42.626;23.200;2022-09-12T08:08:31;5.63;;;5.17;;
1775;SDS011;885;42.626;23.200;2022-09-12T08:11:00;7.37;;;6.67;;
1775;SDS011;885;42.626;23.200;2022-09-12T08:13:30;6.87;;;6.27;;
1775;SDS011;885;42.626;23.200;2022-09-12T08:15:58;6.37;;;5.87;;
1775;SDS011;885;42.626;23.200;2022-09-12T08:18:25;5.63;;;5.13;;
1775;SDS011;885;42.626;23.200;2022-09-12T08:20:56;6.17;;;5.67;;
1775;SDS011;885;42.626;23.200;2022-09-12T08:23:23;6.27;;;5.77;;
1775;SDS011;885;42.626;23.200;2022-09-12T08:25:54;6.27;;;5.07;;
1775;SDS011;885;42.626;23.200;2022-09-12T08:28:22;4.70;;;4.30;;
1775;SDS011;885;42.626;23.200;2022-09-12T08:30:50;4.77;;;4.37;;
1775;SDS011;885;42.626;23.200;2022-09-12T08:33:17;5.10;;;4.63;;
1775;SDS011;885;42.626;23.200;2022-09-12T08:35:43;8.03;;;5.23;;
1775;SDS011;885;42.626;23.200;2022-09-12T08:38:10;5.20;;;4.80;;
1775;SDS011;885;42.626;23.200;2022-09-12T08:40:40;5.67;;;5.17;;
1775;SDS011;885;42.626;23.200;2022-09-12T08:43:15;5.40;;;4.90;;
1775;SDS011;885;42.626;23.200;2022-09-12T08:45:57;5.30;;;4.90;;
1775;SDS011;885;42.626;23.200;2022-09-12T08:48:28;5.13;;;4.73;;
1775;SDS011;885;42.626;23.200;2022-09-12T08:50:55;5.03;;;4.63;;
1775;SDS011;885;42.626;23.200;2022-09-12T08:53:22;5.20;;;4.80;;
1775;SDS011;885;42.626;23.200;2022-09-12T08:55:55;6.27;;;5.10;;
1775;SDS011;885;42.626;23.200;2022-09-12T08:58:26;5.20;;;4.80;;
1775;SDS011;885;42.626;23.200;2022-09-12T09:00:56;5.27;;;4.87;;
1775;SDS011;885;42.626;23.200;2022-09-12T09:03:34;5.53;;;5.03;;
1775;SDS011;885;42.626;23.200;2022-09-12T09:06:30;8.37;;;5.67;;
1775;SDS011;885;42.626;23.200;2022-09-12T09:09:14;5.03;;;4.63;;
1775;SDS011;885;42.626;23.200;2022-09-12T09:11:53;5.80;;;5.30;;
1775;SDS011;885;42.626;23.200;2022-09-12T09:14:44;6.50;;;6.00;;
1775;SDS011;885;42.626;23.200;2022-09-12T09:17:22;6.30;;;5.80;;
1775;SDS011;885;42.626;23.200;2022-09-12T09:19:55;6.03;;;5.43;;
1775;SDS011;885;42.626;23.200;2022-09-12T09:22:37;6.57;;;6.07;;
1775;SDS011;885;42.626;23.200;2022-09-12T09:25:10;5.30;;;4.90;;
1775;SDS011;885;42.626;23.200;2022-09-12T09:27:44;6.77;;;6.23;;
1775;SDS011;885;42.626;23.200;2022-09-12T09:30:15;6.73;;;6.17;;
1775;SDS011;885;42.626;23.200;2022-09-12T09:32:46;12.30;;;10.93;;
1775;SDS011;885;42.626;23.200;2022-09-12T09:35:17;6.87;;;6.30;;
1775;SDS011;885;42.626;23.200;2022-09-12T09:37:53;7.07;;;6.47;;
1775;SDS011;885;42.626;23.200;2022-09-12T09:40:28;7.83;;;7.23;;
1775;SDS011;885;42.626;23.200;2022-09-12T09:43:05;11.83;;;10.83;;
1775;SDS011;885;42.626;23.200;2022-09-12T09:45:44;7.70;;;7.10;;
1775;SDS011;885;42.626;23.200;2022-09-12T09:48:14;8.60;;;5.83;;
1775;SDS011;885;42.626;23.200;2022-09-12T09:50:43;7.17;;;6.00;;
1775;SDS011;885;42.626;23.200;2022-09-12T09:53:15;8.03;;;6.00;;
1775;SDS011;885;42.626;23.200;2022-09-12T09:55:51;7.60;;;6.63;;
1775;SDS011;885;42.626;23.200;2022-09-12T09:58:27;6.50;;;5.90;;
1775;SDS011;885;42.626;23.200;2022-09-12T10:00:58;5.80;;;5.27;;
1775;SDS011;885;42.626;23.200;2022-09-12T10:03:28;6.17;;;5.67;;
1775;SDS011;885;42.626;23.200;2022-09-12T10:05:58;6.40;;;5.70;;
1775;SDS011;885;42.626;23.200;2022-09-12T10:08:26;7.30;;;6.60;;
1775;SDS011;885;42.626;23.200;2022-09-12T10:10:55;7.10;;;6.40;;
1775;SDS011;885;42.626;23.200;2022-09-12T10:13:32;6.27;;;5.77;;
1775;SDS011;885;42.626;23.200;2022-09-12T10:16:04;6.03;;;5.60;;
1775;SDS011;885;42.626;23.200;2022-09-12T10:18:32;15.53;;;10.33;;
1775;SDS011;885;42.626;23.200;2022-09-12T10:21:11;23.30;;;15.20;;
1775;SDS011;885;42.626;23.200;2022-09-12T10:23:41;7.97;;;7.27;;
1775;SDS011;885;42.626;23.200;2022-09-12T10:26:09;7.10;;;6.50;;
1775;SDS011;885;42.626;23.200;2022-09-12T10:28:39;7.00;;;6.47;;
1775;SDS011;885;42.626;23.200;2022-09-12T10:31:09;5.97;;;5.40;;
1775;SDS011;885;42.626;23.200;2022-09-12T10:33:41;6.87;;;6.20;;
1775;SDS011;885;42.626;23.200;2022-09-12T10:36:16;7.17;;;6.67;;
1775;SDS011;885;42.626;23.200;2022-09-12T10:38:47;7.90;;;7.23;;
1775;SDS011;885;42.626;23.200;2022-09-12T10:41:15;11.63;;;7.63;;
1775;SDS011;885;42.626;23.200;2022-09-12T10:43:43;6.23;;;5.63;;
1775;SDS011;885;42.626;23.200;2022-09-12T10:46:21;7.60;;;6.90;;
1775;SDS011;885;42.626;23.200;2022-09-12T10:51:38;7.40;;;6.80;;
1775;SDS011;885;42.626;23.200;2022-09-12T10:54:07;5.80;;;5.40;;
1775;SDS011;885;42.626;23.200;2022-09-12T10:56:37;6.20;;;5.80;;
1775;SDS011;885;42.626;23.200;2022-09-12T10:59:11;8.30;;;7.50;;
1775;SDS011;885;42.626;23.200;2022-09-12T11:01:50;7.23;;;6.63;;
1775;SDS011;885;42.626;23.200;2022-09-12T11:04:28;7.77;;;7.07;;
1775;SDS011;885;42.626;23.200;2022-09-12T11:07:13;28.13;;;21.53;;
1775;SDS011;885;42.626;23.200;2022-09-12T11:09:52;6.80;;;6.10;;
1775;SDS011;885;42.626;23.200;2022-09-12T11:12:28;6.20;;;5.70;;
1775;SDS011;885;42.626;23.200;2022-09-12T11:15:15;6.70;;;6.20;;
1775;SDS011;885;42.626;23.200;2022-09-12T11:18:02;7.63;;;6.10;;
1775;SDS011;885;42.626;23.200;2022-09-12T11:20:42;8.47;;;7.43;;
1775;SDS011;885;42.626;23.200;2022-09-12T11:26:13;7.00;;;6.40;;
1775;SDS011;885;42.626;23.200;2022-09-12T11:28:52;8.50;;;6.90;;
1775;SDS011;885;42.626;23.200;2022-09-12T11:31:43;9.30;;;8.40;;
1775;SDS011;885;42.626;23.200;2022-09-12T11:34:28;9.43;;;8.67;;
1775;SDS011;885;42.626;23.200;2022-09-12T11:37:04;13.40;;;12.30;;
1775;SDS011;885;42.626;23.200;2022-09-12T11:39:41;7.97;;;7.27;;
1775;SDS011;885;42.626;23.200;2022-09-12T11:42:12;10.73;;;9.73;;
1775;SDS011;885;42.626;23.200;2022-09-12T11:44:44;8.43;;;7.70;;
1775;SDS011;885;42.626;23.200;2022-09-12T11:47:14;10.90;;;9.90;;
1775;SDS011;885;42.626;23.200;2022-09-12T11:49:44;13.17;;;12.17;;
1775;SDS011;885;42.626;23.200;2022-09-12T11:52:14;9.30;;;8.03;;
1775;SDS011;885;42.626;23.200;2022-09-12T11:54:45;9.67;;;8.77;;
1775;SDS011;885;42.626;23.200;2022-09-12T11:57:16;10.20;;;9.40;;
1775;SDS011;885;42.626;23.200;2022-09-12T11:59:50;9.03;;;8.13;;
1775;SDS011;885;42.626;23.200;2022-09-12T12:02:24;8.97;;;8.27;;
1775;SDS011;885;42.626;23.200;2022-09-12T12:05:03;8.77;;;7.97;;
1775;SDS011;885;42.626;23.200;2022-09-12T12:07:42;9.57;;;8.77;;
1775;SDS011;885;42.626;23.200;2022-09-12T12:10:23;7.63;;;7.03;;
1775;SDS011;885;42.626;23.200;2022-09-12T12:12:55;6.33;;;5.83;;
1775;SDS011;885;42.626;23.200;2022-09-12T12:15:24;6.30;;;5.80;;
1775;SDS011;885;42.626;23.200;2022-09-12T12:17:59;5.63;;;5.20;;
1775;SDS011;885;42.626;23.200;2022-09-12T12:20:29;8.40;;;7.33;;
1775;SDS011;885;42.626;23.200;2022-09-12T12:22:56;6.90;;;6.30;;
1775;SDS011;885;42.626;23.200;2022-09-12T12:25:25;6.40;;;5.90;;
1775;SDS011;885;42.626;23.200;2022-09-12T12:28:04;7.33;;;6.73;;
1775;SDS011;885;42.626;23.200;2022-09-12T12:30:57;7.83;;;7.13;;
1775;SDS011;885;42.626;23.200;2022-09-12T12:36:39;4.60;;;4.30;;
1775;SDS011;885;42.626;23.200;2022-09-12T12:48:32;3.83;;;3.53;;
1775;SDS011;885;42.626;23.200;2022-09-12T12:51:14;3.90;;;3.60;;
1775;SDS011;885;42.626;23.200;2022-09-12T12:53:52;4.27;;;3.97;;
1775;SDS011;885;42.626;23.200;2022-09-12T12:56:27;4.57;;;4.27;;
1775;SDS011;885;42.626;23.200;2022-09-12T12:59:00;4.07;;;3.77;;
1775;SDS011;885;42.626;23.200;2022-09-12T13:01:29;4.50;;;4.20;;
1775;SDS011;885;42.626;23.200;2022-09-12T13:04:09;4.60;;;4.20;;
1775;SDS011;885;42.626;23.200;2022-09-12T13:06:42;5.57;;;5.17;;
1775;SDS011;885;42.626;23.200;2022-09-12T13:09:18;5.73;;;5.33;;
1775;SDS011;885;42.626;23.200;2022-09-12T13:11:54;4.30;;;4.00;;
1775;SDS011;885;42.626;23.200;2022-09-12T13:14:32;4.90;;;4.40;;
1775;SDS011;885;42.626;23.200;2022-09-12T13:17:23;4.47;;;4.20;;
1775;SDS011;885;42.626;23.200;2022-09-12T13:19:58;5.57;;;5.03;;
1775;SDS011;885;42.626;23.200;2022-09-12T13:22:37;4.80;;;4.50;;
1775;SDS011;885;42.626;23.200;2022-09-12T13:25:25;5.17;;;4.80;;
1775;SDS011;885;42.626;23.200;2022-09-12T13:28:01;5.43;;;5.10;;
1775;SDS011;885;42.626;23.200;2022-09-12T13:30:32;5.00;;;4.60;;
1775;SDS011;885;42.626;23.200;2022-09-12T13:35:57;5.67;;;5.20;;
1775;SDS011;885;42.626;23.200;2022-09-12T13:38:36;5.20;;;4.80;;
1775;SDS011;885;42.626;23.200;2022-09-12T13:41:19;7.03;;;4.70;;
1775;SDS011;885;42.626;23.200;2022-09-12T13:43:58;6.80;;;6.30;;
1775;SDS011;885;42.626;23.200;2022-09-12T13:46:26;7.70;;;6.37;;
1775;SDS011;885;42.626;23.200;2022-09-12T13:48:55;5.93;;;5.43;;
1775;SDS011;885;42.626;23.200;2022-09-12T13:51:24;7.50;;;7.00;;
1775;SDS011;885;42.626;23.200;2022-09-12T13:53:53;6.50;;;6.00;;
1775;SDS011;885;42.626;23.200;2022-09-12T13:56:24;7.20;;;6.70;;
1775;SDS011;885;42.626;23.200;2022-09-12T13:58:52;7.73;;;7.13;;
1775;SDS011;885;42.626;23.200;2022-09-12T14:01:21;6.90;;;6.40;;
1775;SDS011;885;42.626;23.200;2022-09-12T14:03:49;6.60;;;6.00;;
1775;SDS011;885;42.626;23.200;2022-09-12T14:06:36;8.27;;;7.57;;
1775;SDS011;885;42.626;23.200;2022-09-12T14:09:12;7.13;;;6.53;;
1775;SDS011;885;42.626;23.200;2022-09-12T14:11:41;7.90;;;7.30;;
1775;SDS011;885;42.626;23.200;2022-09-12T14:14:16;7.50;;;6.90;;
1775;SDS011;885;42.626;23.200;2022-09-12T14:16:46;6.60;;;6.20;;
1775;SDS011;885;42.626;23.200;2022-09-12T14:19:13;6.90;;;6.40;;
1775;SDS011;885;42.626;23.200;2022-09-12T14:21:41;8.33;;;7.63;;
1775;SDS011;885;42.626;23.200;2022-09-12T14:24:08;7.40;;;6.80;;
1775;SDS011;885;42.626;23.200;2022-09-12T14:26:38;7.93;;;7.33;;
1775;SDS011;885;42.626;23.200;2022-09-12T14:29:11;7.50;;;6.90;;
1775;SDS011;885;42.626;23.200;2022-09-12T14:31:40;6.23;;;5.73;;
1775;SDS011;885;42.626;23.200;2022-09-12T14:34:08;5.70;;;5.30;;
1775;SDS011;885;42.626;23.200;2022-09-12T14:36:39;6.73;;;6.20;;
1775;SDS011;885;42.626;23.200;2022-09-12T14:39:15;7.07;;;6.47;;
1775;SDS011;885;42.626;23.200;2022-09-12T14:41:50;7.00;;;6.50;;
1775;SDS011;885;42.626;23.200;2022-09-12T14:44:26;8.63;;;7.93;;
1775;SDS011;885;42.626;23.200;2022-09-12T14:46:55;6.00;;;5.60;;
1775;SDS011;885;42.626;23.200;2022-09-12T14:49:28;6.80;;;6.30;;
1775;SDS011;885;42.626;23.200;2022-09-12T14:51:58;6.20;;;5.60;;
1775;SDS011;885;42.626;23.200;2022-09-12T14:54:33;11.00;;;10.10;;
1775;SDS011;885;42.626;23.200;2022-09-12T14:57:16;7.10;;;6.50;;
1775;SDS011;885;42.626;23.200;2022-09-12T15:00:04;11.40;;;10.40;;
1775;SDS011;885;42.626;23.200;2022-09-12T15:02:35;13.97;;;12.73;;
1775;SDS011;885;42.626;23.200;2022-09-12T15:07:57;5.50;;;5.10;;
1775;SDS011;885;42.626;23.200;2022-09-12T15:10:25;8.10;;;5.10;;
1775;SDS011;885;42.626;23.200;2022-09-12T15:15:51;6.03;;;5.63;;
1775;SDS011;885;42.626;23.200;2022-09-12T15:18:19;6.30;;;5.70;;
1775;SDS011;885;42.626;23.200;2022-09-12T15:20:48;4.80;;;4.50;;
1775;SDS011;885;42.626;23.200;2022-09-12T15:23:18;5.90;;;5.50;;
1775;SDS011;885;42.626;23.200;2022-09-12T15:25:50;6.57;;;6.07;;
1775;SDS011;885;42.626;23.200;2022-09-12T15:28:18;7.57;;;5.40;;
1775;SDS011;885;42.626;23.200;2022-09-12T15:30:48;5.20;;;4.80;;
1775;SDS011;885;42.626;23.200;2022-09-12T15:33:17;7.20;;;6.60;;
1775;SDS011;885;42.626;23.200;2022-09-12T15:35:45;7.37;;;6.77;;
1775;SDS011;885;42.626;23.200;2022-09-12T15:38:12;6.57;;;6.07;;
1775;SDS011;885;42.626;23.200;2022-09-12T15:40:39;6.17;;;5.57;;
1775;SDS011;885;42.626;23.200;2022-09-12T15:43:06;6.30;;;5.80;;
1775;SDS011;885;42.626;23.200;2022-09-12T15:45:33;6.90;;;6.40;;
1775;SDS011;885;42.626;23.200;2022-09-12T15:48:02;7.07;;;6.57;;
1775;SDS011;885;42.626;23.200;2022-09-12T15:50:29;8.00;;;6.23;;
1775;SDS011;885;42.626;23.200;2022-09-12T15:52:56;7.40;;;6.53;;
1775;SDS011;885;42.626;23.200;2022-09-12T15:55:25;7.27;;;6.73;;
1775;SDS011;885;42.626;23.200;2022-09-12T15:57:54;7.50;;;6.90;;
1775;SDS011;885;42.626;23.200;2022-09-12T16:00:21;7.03;;;6.43;;
1775;SDS011;885;42.626;23.200;2022-09-12T16:02:49;7.23;;;6.53;;
1775;SDS011;885;42.626;23.200;2022-09-12T16:05:19;7.13;;;6.53;;
1775;SDS011;885;42.626;23.200;2022-09-12T16:07:49;6.53;;;6.03;;
1775;SDS011;885;42.626;23.200;2022-09-12T16:10:17;6.70;;;6.20;;